Monday, October 22, 2018, 8:44 PM EDT
Back to Local

KEEN, Keene, Dillant-hopkins Airport

Location: Keene, NH, United States Lat: 42.9
Local Time: 8:44 PM EDT ( 0:44 GMT) Lon: -72.267
Time Zone: US/Eastern Elev: 488 ft

Show me the last for .
Show Decoded

2018-10-22 19:56 METAR KEEN 222356Z AUTO 00000KT 10SM OVC050 06/01 A3015 RMK AO2 SLP229 T00560011
                 10089 20056 53011 $ =
2018-10-22 18:56 METAR KEEN 222256Z AUTO 00000KT 10SM OVC050 06/01 A3014 RMK AO2 SLP225 T00610006
                 $ =
2018-10-22 17:56 METAR KEEN 222156Z AUTO 18004KT 10SM OVC055 07/M01 A3012 RMK AO2 SLP223
                 T00721006 $ =
2018-10-22 16:56 METAR KEEN 222056Z AUTO 19007KT 10SM 08/M02 A3012 RMK AO2 SLP219 T00781022 56004
                 $ =
2018-10-22 14:56 METAR KEEN 221856Z AUTO VRB04KT 10SM BKN055 OVC110 08/M03 A3012 RMK AO2 SLP219
                 T00831033 $ =
2018-10-22 13:56 METAR KEEN 221756Z AUTO 26007KT 230V300 10SM OVC055 09/M04 A3013 RMK AO2 SLP222
                 60000 T00891039 10089 21056 58010 $ =
2018-10-22 12:56 METAR KEEN 221656Z AUTO VRB05KT 10SM OVC049 08/M03 A3014 RMK AO2 SLP228
                 T00781033 $ =
2018-10-22 11:56 METAR KEEN 221556Z AUTO 22010KT 10SM BKN046 OVC055 07/M03 A3015 RMK AO2 SLP231
                 T00721033 $ =
2018-10-22 10:56 METAR KEEN 221456Z AUTO 21008KT 10SM FEW047 06/M03 A3016 RMK AO2 SLP234 60000
                 T00611028 58004 $ =
2018-10-22 09:56 METAR KEEN 221356Z AUTO 00000KT 10SM CLR 02/M03 A3016 RMK AO2 SLP236 T00171028
                 FZRANO $ =
2018-10-22 08:56 METAR KEEN 221256Z AUTO VRB03KT 10SM CLR M02/M03 A3017 RMK AO2 UPB46E56 SLP238
                 P0000 T10171028 FZRANO $ =
2018-10-22 07:56 METAR KEEN 221156Z AUTO 15003KT 10SM CLR M06/M06 A3017 RMK AO2 SLP237 T10561061
                 11033 21061 51019 FZRANO $ =
2018-10-22 06:56 METAR KEEN 221056Z AUTO 00000KT 10SM CLR M06/M07 A3015 RMK AO2 SLP231 T10611067
                 FZRANO $ =
2018-10-22 05:56 METAR KEEN 220956Z AUTO 00000KT 10SM CLR M06/M07 A3013 RMK AO2 SLP224 T10561067
                 FZRANO $ =
2018-10-22 04:56 METAR KEEN 220856Z AUTO 00000KT 10SM CLR M05/M06 A3011 RMK AO2 SLP217 T10501056
                 51004 FZRANO $ =
2018-10-22 03:56 METAR KEEN 220756Z AUTO 00000KT 10SM CLR M04/M06 A3011 RMK AO2 SLP218 T10441056
                 FZRANO $ =
2018-10-22 02:56 METAR KEEN 220656Z AUTO 00000KT 10SM FEW050 M05/M06 A3011 RMK AO2 SLP216
                 T10501056 FZRANO $ =
2018-10-22 01:56 METAR KEEN 220556Z AUTO 00000KT 10SM CLR M03/M04 A3010 RMK AO2 SLP215 T10331044
                 10028 21033 53008 FZRANO $ =
2018-10-22 00:56 METAR KEEN 220456Z AUTO 00000KT 10SM FEW050 M03/M05 A3009 RMK AO2 SLP212
                 T10281050 400721033 FZRANO $ =
2018-10-21 23:56 METAR KEEN 220356Z AUTO 00000KT 10SM OVC050 00/M05 A3008 RMK AO2 SLP206
                 T00001050 FZRANO $ =
2018-10-21 22:56 METAR KEEN 220256Z AUTO 00000KT 10SM OVC050 02/M07 A3008 RMK AO2 SLP207
                 T00171072 51021 FZRANO $ =
2018-10-21 21:56 METAR KEEN 220156Z AUTO 00000KT 10SM OVC050 02/M08 A3006 RMK AO2 SLP203
                 T00171078 FZRANO $ =
2018-10-21 20:56 METAR KEEN 220056Z AUTO VRB04KT 10SM FEW055 02/M08 A3004 RMK AO2 SLP193
                 T00221083 FZRANO $ =

Support USWX by starting your Amazon purchase here.